Time;durP1;ratioP1;P1;durP2;ratioP2;P2;SDS_P1;SDS_P2;PMS_P1;PMS_P2;Temp;Humidity;BMP_temperature;BMP_pressure;BME280_temperature;BME280_humidity;BME280_pressure;Samples;Min_cycle;Max_cycle;Signal;HPM_P1;HPM_P2
2023/01/13 00:00:49;;;;;;;3.58;0.98;;;;;;;10.54;75.62;99522.22;4985533;28;20050;-82
2023/01/13 00:03:16;;;;;;;2.95;1.00;;;;;;;10.53;75.21;99509.91;4983041;28;20046;-82
2023/01/13 00:05:42;;;;;;;2.58;0.70;;;;;;;10.50;75.14;99503.06;4951061;28;20038;-83
2023/01/13 00:08:09;;;;;;;2.47;0.88;;;;;;;10.49;75.39;99512.03;4966729;28;20540;-82
2023/01/13 00:10:36;;;;;;;4.93;1.27;;;;;;;10.53;75.55;99504.59;4998520;28;20401;-83
2023/01/13 00:13:03;;;;;;;3.83;1.02;;;;;;;10.56;75.53;99493.72;4997775;28;20053;-82
2023/01/13 00:15:31;;;;;;;4.45;1.30;;;;;;;10.53;75.53;99505.47;4963528;28;20108;-82
2023/01/13 00:17:58;;;;;;;4.40;1.30;;;;;;;10.53;75.73;99486.03;4951573;28;20046;-82
2023/01/13 00:20:24;;;;;;;3.50;1.00;;;;;;;10.57;75.85;99498.03;4952719;28;20038;-82
2023/01/13 00:22:51;;;;;;;3.00;1.00;;;;;;;10.55;75.65;99505.31;4963792;28;20077;-82
2023/01/13 00:25:18;;;;;;;3.55;0.90;;;;;;;10.56;75.93;99491.06;4969527;28;20054;-82
2023/01/13 00:27:44;;;;;;;5.38;1.00;;;;;;;10.55;76.01;99495.53;4992148;28;20074;-84
2023/01/13 00:30:11;;;;;;;6.57;1.15;;;;;;;10.56;75.83;99493.72;4970102;28;20105;-82
2023/01/13 00:32:38;;;;;;;5.07;0.93;;;;;;;10.54;75.13;99488.53;4985370;28;20560;-82
2023/01/13 00:35:05;;;;;;;2.85;0.82;;;;;;;10.56;75.50;99481.28;4964525;28;20366;-84
2023/01/13 00:37:36;;;;;;;3.03;0.90;;;;;;;10.53;75.54;99486.88;4986252;28;20046;-82
2023/01/13 00:40:04;;;;;;;3.15;0.77;;;;;;;10.56;75.54;99489.25;5017433;28;20050;-82
2023/01/13 00:45:16;;;;;;;3.97;0.90;;;;;;;10.57;75.70;99490.91;4953269;28;20602;-85
2023/01/13 00:47:43;;;;;;;1.58;0.80;;;;;;;10.58;75.77;99475.81;4940603;28;20039;-82
2023/01/13 00:50:09;;;;;;;3.63;1.00;;;;;;;10.58;75.64;99460.75;4943501;28;20102;-82
2023/01/13 00:52:36;;;;;;;5.22;1.10;;;;;;;10.57;75.83;99482.94;4948200;28;20051;-83
2023/01/13 00:55:03;;;;;;;1.95;0.90;;;;;;;10.60;75.47;99472.03;4947757;28;20065;-82
2023/01/13 00:57:30;;;;;;;3.97;0.90;;;;;;;10.59;75.88;99467.72;4955068;28;20049;-83
2023/01/13 00:59:57;;;;;;;1.65;0.65;;;;;;;10.59;75.76;99462.41;4935703;28;20528;-82
2023/01/13 01:02:23;;;;;;;1.27;0.80;;;;;;;10.60;75.80;99468.53;4944128;28;20042;-82
2023/01/13 01:04:50;;;;;;;1.85;0.70;;;;;;;10.62;75.70;99466.59;4942842;28;20077;-83
2023/01/13 01:07:17;;;;;;;1.73;0.70;;;;;;;10.59;76.02;99459.75;4949236;28;20066;-82
2023/01/13 01:09:44;;;;;;;1.60;0.60;;;;;;;10.60;76.12;99458.75;4915524;28;20051;-82
2023/01/13 01:12:10;;;;;;;3.05;1.25;;;;;;;10.61;76.31;99470.22;4948306;28;20153;-84
2023/01/13 01:14:37;;;;;;;3.20;0.90;;;;;;;10.62;76.20;99461.28;4946386;28;20053;-82
2023/01/13 01:17:04;;;;;;;0.70;0.70;;;;;;;10.61;76.15;99451.66;4974133;28;20050;-82
2023/01/13 01:19:30;;;;;;;4.85;0.70;;;;;;;10.60;76.29;99469.38;4986194;28;20061;-82
2023/01/13 01:21:57;;;;;;;3.63;0.95;;;;;;;10.61;76.33;99463.09;4987162;28;20535;-82
2023/01/13 01:24:24;;;;;;;3.42;0.98;;;;;;;10.60;76.42;99463.22;4980022;28;20061;-82
2023/01/13 01:26:51;;;;;;;2.38;1.00;;;;;;;10.55;76.31;99450.38;4982652;28;20049;-82
2023/01/13 01:29:17;;;;;;;0.80;0.70;;;;;;;10.59;76.56;99461.56;5000409;28;20046;-82
2023/01/13 01:31:44;;;;;;;4.28;0.75;;;;;;;10.60;76.34;99471.19;4989429;28;20534;-82
2023/01/13 01:34:11;;;;;;;1.75;0.70;;;;;;;10.61;76.60;99471.06;4960683;28;20384;-82
2023/01/13 01:36:38;;;;;;;2.70;0.70;;;;;;;10.58;76.68;99470.50;4955582;28;20100;-82
2023/01/13 01:39:05;;;;;;;5.47;1.00;;;;;;;10.59;76.73;99465.06;4981924;28;20738;-82
2023/01/13 01:41:33;;;;;;;1.33;0.70;;;;;;;10.60;76.84;99465.88;4967888;28;20513;-82
2023/01/13 01:44:41;;;;;;;6.82;1.27;;;;;;;10.52;77.39;99471.09;4966409;28;20046;-82
2023/01/13 01:47:13;;;;;;;2.17;0.80;;;;;;;10.58;77.40;99465.19;4982393;28;20066;-82
2023/01/13 01:49:41;;;;;;;2.15;0.80;;;;;;;10.52;78.20;99463.97;4989900;28;20046;-83
2023/01/13 01:52:13;;;;;;;2.38;0.90;;;;;;;10.53;78.29;99467.44;4982725;28;20046;-82
2023/01/13 01:54:46;;;;;;;2.55;0.80;;;;;;;10.40;80.33;99457.97;4992663;28;20046;-82
2023/01/13 01:57:17;;;;;;;1.10;0.93;;;;;;;10.39;80.66;99461.63;4982987;28;20045;-83
2023/01/13 01:59:47;;;;;;;1.83;0.80;;;;;;;10.49;79.97;99464.25;4943760;28;20462;-83
2023/01/13 02:02:14;;;;;;;4.07;0.82;;;;;;;10.51;79.97;99457.00;4850571;28;20437;-82
2023/01/13 02:15:34;;;;;;;2.10;0.70;;;;;;;10.42;80.73;99452.53;6189754;22;1302074;-80
2023/01/13 02:18:22;;;;;;;0.73;0.50;;;;;;;10.39;80.92;99439.56;6239862;22;20023;-82
2023/01/13 02:21:00;;;;;;;3.97;0.73;;;;;;;10.39;81.02;99456.31;6213526;22;20028;-81
2023/01/13 02:26:56;;;;;;;1.58;0.55;;;;;;;10.38;81.44;99432.56;6193987;22;20016;-81
2023/01/13 02:32:34;;;;;;;;;;;;;;;10.30;82.33;99424.47;6208854;22;20024;-81
2023/01/13 02:35:07;;;;;;;;;;;;;;;10.29;82.63;99425.47;6166516;22;19920;-80
2023/01/13 02:37:38;;;;;;;2.67;0.82;;;;;;;10.41;81.33;99426.97;6133694;23;19916;-81
2023/01/13 02:40:14;;;;;;;0.60;0.57;;;;;;;10.39;81.39;99413.84;6185649;23;20024;-81
2023/01/13 02:45:52;;;;;;;2.22;0.65;;;;;;;10.43;81.53;99404.63;6173732;22;20100;-81
2023/01/13 02:48:21;;;;;;;2.40;1.45;;;;;;;10.49;81.41;99399.72;6190471;22;20024;-81
2023/01/13 02:50:55;;;;;;;2.17;0.57;;;;;;;10.47;81.46;99409.63;6165936;22;20474;-80
2023/01/13 02:53:33;;;;;;;3.33;0.80;;;;;;;10.35;82.36;99412.44;6161979;23;20028;-80
2023/01/13 02:56:01;;;;;;;5.03;1.33;;;;;;;10.46;81.76;99414.13;6184616;22;20482;-81
2023/01/13 02:58:28;;;;;;;2.08;0.75;;;;;;;10.49;81.13;99403.19;6189424;22;20020;-81
2023/01/13 03:00:55;;;;;;;1.50;0.65;;;;;;;10.50;81.06;99404.84;6190044;22;20034;-83
2023/01/13 03:03:23;;;;;;;2.40;0.80;;;;;;;10.51;81.36;99397.75;6189994;22;20024;-80
2023/01/13 03:05:56;;;;;;;1.73;0.65;;;;;;;10.51;81.13;99403.06;6239628;22;20020;-82
2023/01/13 03:08:41;;;;;;;2.97;0.70;;;;;;;10.48;81.20;99400.69;6190482;22;20028;-81
2023/01/13 03:11:10;;;;;;;2.35;0.75;;;;;;;10.54;81.22;99402.75;6164528;22;20411;-81
2023/01/13 03:13:51;;;;;;;3.15;1.10;;;;;;;10.49;81.02;99402.38;6184922;23;20027;-83
2023/01/13 03:16:47;;;;;;;1.85;0.90;;;;;;;10.50;81.12;99414.66;6180684;22;20028;-83
2023/01/13 03:19:49;;;;;;;3.88;1.20;;;;;;;10.48;81.08;99406.84;6227512;22;20094;-81
2023/01/13 03:22:21;;;;;;;1.70;0.50;;;;;;;10.53;80.96;99393.97;6156434;22;20344;-81
2023/01/13 03:24:55;;;;;;;2.65;0.73;;;;;;;10.51;81.30;99395.09;6180706;22;25500;-81
2023/01/13 03:27:30;;;;;;;2.00;0.60;;;;;;;10.55;81.34;99401.78;6156253;22;20012;-81
2023/01/13 03:30:00;;;;;;;3.03;0.70;;;;;;;10.52;81.68;99389.63;6183067;22;20074;-81
2023/01/13 03:32:37;;;;;;;2.67;0.80;;;;;;;10.47;81.93;99389.22;6207597;22;20392;-81
2023/01/13 03:35:22;;;;;;;2.60;0.60;;;;;;;10.44;82.55;99384.22;6206367;22;20035;-81
2023/01/13 03:38:16;;;;;;;1.35;0.65;;;;;;;10.48;82.47;99380.31;6172461;23;20082;-81
2023/01/13 03:40:46;;;;;;;2.15;0.63;;;;;;;10.52;82.53;99386.13;6114928;22;20016;-81
2023/01/13 03:46:07;;;;;;;0.98;0.65;;;;;;;10.51;82.97;99371.22;6203654;22;20074;-81
2023/01/13 03:48:35;;;;;;;1.27;0.60;;;;;;;10.53;82.85;99378.03;6182346;22;20475;-81
2023/01/13 03:51:05;;;;;;;0.52;0.52;;;;;;;10.53;83.23;99370.06;6129118;23;20750;-81
2023/01/13 03:53:36;;;;;;;1.80;0.70;;;;;;;10.54;83.12;99369.09;6157192;22;20087;-82
2023/01/13 03:56:25;;;;;;;1.50;0.50;;;;;;;10.46;83.70;99370.78;6158030;22;20043;-82
2023/01/13 03:58:52;;;;;;;1.45;0.70;;;;;;;10.52;83.16;99371.03;6157517;22;20020;-81
2023/01/13 04:01:32;;;;;;;3.63;0.60;;;;;;;10.48;83.63;99368.81;6183489;22;20028;-81
2023/01/13 04:04:05;;;;;;;2.17;0.60;;;;;;;10.49;83.73;99350.09;6180361;22;20031;-81
2023/01/13 04:06:48;;;;;;;1.17;0.65;;;;;;;10.45;83.88;99354.03;6207062;22;20020;-81
2023/01/13 04:09:21;;;;;;;1.50;0.60;;;;;;;10.51;83.73;99339.34;6205244;22;20497;-81
2023/01/13 04:11:55;;;;;;;1.55;0.68;;;;;;;10.49;83.68;99338.66;6232541;22;20464;-81
2023/01/13 04:14:23;;;;;;;1.98;0.60;;;;;;;10.54;83.59;99331.09;6181741;22;20459;-81
2023/01/13 04:16:52;;;;;;;3.78;1.60;;;;;;;10.52;82.95;99336.53;6183903;22;20039;-81
2023/01/13 04:19:20;;;;;;;4.15;3.33;;;;;;;10.54;82.45;99345.19;6158342;22;20520;-81
2023/01/13 04:21:47;;;;;;;1.40;1.30;;;;;;;10.55;82.24;99346.84;6177922;23;20095;-83
2023/01/13 04:24:13;;;;;;;1.23;0.77;;;;;;;10.57;82.00;99341.41;6206131;22;20042;-81
2023/01/13 04:26:40;;;;;;;1.92;0.50;;;;;;;10.57;82.14;99339.56;6205494;22;20043;-81
2023/01/13 04:29:07;;;;;;;3.20;0.60;;;;;;;10.59;81.86;99348.25;6128693;23;20031;-82
2023/01/13 04:31:34;;;;;;;2.25;0.75;;;;;;;10.61;81.79;99348.94;6205274;22;20347;-81
2023/01/13 04:34:00;;;;;;;0.65;0.50;;;;;;;10.62;81.73;99342.63;6157250;22;20019;-81
2023/01/13 04:36:27;;;;;;;1.98;0.90;;;;;;;10.62;81.36;99336.47;6157494;22;20385;-81
2023/01/13 04:38:54;;;;;;;1.27;0.65;;;;;;;10.64;80.96;99340.66;6176805;22;20020;-80
2023/01/13 04:41:21;;;;;;;1.88;0.70;;;;;;;10.63;81.09;99328.38;6181503;22;20020;-81
2023/01/13 04:43:47;;;;;;;1.73;0.60;;;;;;;10.62;81.03;99334.66;6207848;22;20020;-81
2023/01/13 04:46:14;;;;;;;2.63;0.70;;;;;;;10.62;80.40;99323.22;6158328;22;20016;-81
2023/01/13 04:48:41;;;;;;;1.25;0.60;;;;;;;10.64;80.28;99327.38;6157241;22;20022;-82
2023/01/13 04:51:08;;;;;;;2.15;1.08;;;;;;;10.65;80.49;99330.88;6133717;22;20479;-81
2023/01/13 04:53:34;;;;;;;2.92;1.00;;;;;;;10.68;80.08;99332.41;6182203;22;20096;-81
2023/01/13 04:56:01;;;;;;;6.13;0.90;;;;;;;10.68;80.21;99332.41;6206629;22;20383;-81
2023/01/13 04:58:28;;;;;;;2.13;0.93;;;;;;;10.65;80.08;99312.28;6129492;23;20021;-82
2023/01/13 05:00:55;;;;;;;0.90;0.52;;;;;;;10.67;80.24;99315.63;6151580;23;20036;-81
2023/01/13 05:03:23;;;;;;;2.67;0.70;;;;;;;10.57;80.43;99326.31;6127932;23;22424;-81
2023/01/13 05:05:51;;;;;;;1.50;0.50;;;;;;;10.67;80.25;99320.13;6182952;22;20024;-81
2023/01/13 05:08:17;;;;;;;3.08;0.50;;;;;;;10.69;80.20;99313.66;6206005;22;20436;-81
2023/01/13 05:10:44;;;;;;;2.17;0.50;;;;;;;10.58;80.25;99312.06;6133957;23;20155;-82
2023/01/13 05:18:49;;;;;;;2.92;0.88;;;;;;;10.67;80.42;99302.34;6174296;22;20034;-81
2023/01/13 05:26:47;;;;;;;4.05;0.75;;;;;;;10.67;79.92;99297.03;6157245;22;20406;-81
2023/01/13 05:29:13;;;;;;;1.45;0.47;;;;;;;10.69;80.01;99302.22;6157698;22;20414;-81
2023/01/13 05:31:40;;;;;;;1.00;0.85;;;;;;;10.68;80.05;99290.75;6182222;22;20016;-80
2023/01/13 05:34:07;;;;;;;2.63;0.80;;;;;;;10.70;79.77;99302.06;6202669;22;20020;-80
2023/01/13 05:36:34;;;;;;;1.60;0.55;;;;;;;10.72;79.95;99300.09;6148708;22;20012;-79
2023/01/13 05:39:00;;;;;;;1.77;0.50;;;;;;;10.74;79.98;99294.63;6179129;22;20380;-80
2023/01/13 05:44:13;;;;;;;2.20;0.50;;;;;;;10.75;79.53;99296.28;6159825;22;20055;-82
2023/01/13 05:46:40;;;;;;;0.90;0.40;;;;;;;10.77;79.25;99299.66;6156984;22;20027;-83
2023/01/13 05:49:07;;;;;;;2.58;0.80;;;;;;;10.77;79.11;99281.88;6182465;22;20099;-83
2023/01/13 05:51:34;;;;;;;1.83;0.75;;;;;;;10.77;79.25;99281.06;6157109;23;20100;-80
2023/01/13 05:54:01;;;;;;;0.95;0.70;;;;;;;10.77;79.32;99273.09;6205943;22;20030;-82
2023/01/13 05:56:27;;;;;;;1.80;0.70;;;;;;;10.77;79.23;99281.88;6156830;22;20107;-81
2023/01/13 05:58:54;;;;;;;2.17;0.80;;;;;;;10.79;79.27;99281.75;6181081;22;20042;-82
2023/01/13 06:01:21;;;;;;;0.75;0.68;;;;;;;10.77;79.34;99289.03;6205755;22;20024;-83
2023/01/13 06:03:48;;;;;;;1.08;0.60;;;;;;;10.79;79.06;99292.38;6172305;22;20016;-81
2023/01/13 06:06:14;;;;;;;5.43;1.52;;;;;;;10.77;79.02;99295.16;6118129;23;20020;-81
2023/01/13 06:08:43;;;;;;;4.40;1.13;;;;;;;10.80;78.94;99307.31;6121523;23;20105;-82
2023/01/13 06:11:11;;;;;;;1.52;0.50;;;;;;;10.77;78.26;99299.66;6107280;23;20029;-82
2023/01/13 06:13:38;;;;;;;7.40;2.40;;;;;;;10.77;78.81;99303.13;6170909;23;20024;-82
2023/01/13 06:16:05;;;;;;;2.38;1.42;;;;;;;10.78;79.08;99306.63;6144983;23;20021;-82
2023/01/13 06:18:32;;;;;;;2.15;1.13;;;;;;;10.79;78.74;99303.81;6121346;23;20060;-84
2023/01/13 06:20:58;;;;;;;5.80;1.08;;;;;;;10.80;78.86;99305.47;6098805;23;20021;-82
2023/01/13 06:23:26;;;;;;;2.25;1.50;;;;;;;10.81;78.92;99306.31;6132143;23;20025;-81
2023/01/13 06:26:17;;;;;;;1.45;1.35;;;;;;;10.73;78.18;99301.75;6121693;23;22127;-83
2023/01/13 06:28:43;;;;;;;1.80;0.90;;;;;;;10.82;79.06;99300.03;6120118;23;20337;-85
2023/01/13 06:31:10;;;;;;;1.70;0.70;;;;;;;10.83;78.95;99305.16;6129239;23;20059;-84
2023/01/13 06:33:40;;;;;;;2.45;0.70;;;;;;;10.83;79.09;99299.84;6114738;23;20104;-83
2023/01/13 06:36:12;;;;;;;1.48;0.98;;;;;;;10.84;78.91;99309.50;6118728;23;20339;-81
2023/01/13 06:38:42;;;;;;;3.25;1.27;;;;;;;10.85;79.05;99308.53;6066283;23;20041;-81
2023/01/13 06:41:09;;;;;;;0.80;0.57;;;;;;;10.84;79.09;99296.25;6121493;23;20079;-79
2023/01/13 06:43:37;;;;;;;1.90;0.60;;;;;;;10.84;78.93;99298.06;6144511;23;20017;-79
2023/01/13 06:46:04;;;;;;;1.65;0.45;;;;;;;10.85;78.87;99302.38;6096312;23;20841;-79
2023/01/13 06:48:33;;;;;;;0.73;0.60;;;;;;;10.84;78.84;99298.06;6144996;23;20095;-79
2023/01/13 06:51:01;;;;;;;0.85;0.50;;;;;;;10.86;78.92;99304.03;6122260;23;20028;-79
2023/01/13 06:53:28;;;;;;;0.70;0.50;;;;;;;10.86;79.68;99301.38;6145952;23;20043;-79
2023/01/13 06:55:54;;;;;;;0.65;0.45;;;;;;;10.81;80.78;99301.00;6123759;23;20020;-79
2023/01/13 06:58:21;;;;;;;0.45;0.43;;;;;;;10.77;81.81;99307.59;6149035;23;20025;-79
2023/01/13 07:00:50;;;;;;;0.45;0.40;;;;;;;10.77;81.94;99320.88;6196957;23;20084;-79
2023/01/13 07:03:17;;;;;;;1.08;0.40;;;;;;;10.78;82.29;99315.41;6125106;23;20029;-78
2023/01/13 07:05:51;;;;;;;1.30;0.40;;;;;;;10.74;83.17;99326.50;6148167;23;20028;-79
2023/01/13 07:08:17;;;;;;;0.85;0.40;;;;;;;10.75;83.45;99334.31;6146917;23;20503;-80
2023/01/13 07:10:44;;;;;;;4.50;0.70;;;;;;;10.75;83.66;99334.31;6172663;23;20025;-78
2023/01/13 07:16:03;;;;;;;1.27;0.50;;;;;;;10.73;84.62;99346.06;6105729;23;20021;-79
2023/01/13 07:18:32;;;;;;;2.05;0.65;;;;;;;10.69;85.40;99344.72;6123331;23;20048;-79
2023/01/13 07:21:03;;;;;;;1.85;0.63;;;;;;;10.67;85.50;99354.63;6173137;23;20013;-79
2023/01/13 07:23:34;;;;;;;0.68;0.57;;;;;;;10.68;85.74;99346.50;6172271;23;20052;-81
2023/01/13 07:26:00;;;;;;;0.73;0.50;;;;;;;10.61;86.38;99354.25;6122571;23;20044;-80
2023/01/13 07:28:28;;;;;;;0.70;0.60;;;;;;;10.64;86.33;99348.63;6172448;23;20021;-79
2023/01/13 07:30:55;;;;;;;1.45;0.60;;;;;;;10.59;87.45;99348.25;6147983;23;20021;-79
2023/01/13 07:33:22;;;;;;;3.28;0.80;;;;;;;10.56;87.61;99335.25;6123011;23;20029;-78
2023/01/13 07:36:00;;;;;;;2.03;0.63;;;;;;;10.51;88.42;99363.25;6120846;23;20351;-78
2023/01/13 07:38:28;;;;;;;1.13;0.88;;;;;;;10.53;87.88;99359.47;6076373;23;20590;-79
2023/01/13 07:40:54;;;;;;;1.73;0.63;;;;;;;10.49;89.17;99363.38;6169806;23;20331;-79
2023/01/13 07:43:33;;;;;;;2.38;1.15;;;;;;;10.50;89.27;99367.69;6148554;23;20021;-78
2023/01/13 07:46:03;;;;;;;4.45;2.25;;;;;;;10.47;90.40;99391.88;6168912;23;20033;-79
2023/01/13 07:48:31;;;;;;;3.08;1.48;;;;;;;10.40;91.47;99438.56;6142541;23;20029;-78
2023/01/13 07:51:02;;;;;;;4.78;0.75;;;;;;;10.27;93.60;99440.66;6142527;23;20021;-78
2023/01/13 07:53:29;;;;;;;4.93;1.33;;;;;;;10.32;92.81;99436.63;6122710;23;20017;-80
2023/01/13 07:55:57;;;;;;;2.78;0.80;;;;;;;10.37;92.14;99441.50;6147756;23;20032;-80
2023/01/13 07:58:24;;;;;;;3.15;0.60;;;;;;;10.38;91.40;99443.16;6121887;23;22553;-79
2023/01/13 08:00:51;;;;;;;2.38;0.80;;;;;;;10.39;90.82;99445.69;6144681;23;20024;-79
2023/01/13 08:03:18;;;;;;;1.80;0.80;;;;;;;10.40;90.66;99447.34;6171884;23;20055;-78
2023/01/13 08:05:47;;;;;;;1.42;0.80;;;;;;;10.39;90.52;99436.91;6172275;23;20032;-80
2023/01/13 08:08:14;;;;;;;1.75;0.40;;;;;;;10.37;89.44;99449.47;6148118;23;20490;-78
2023/01/13 08:10:41;;;;;;;1.55;0.60;;;;;;;10.31;90.23;99450.06;6123650;23;20052;-78
2023/01/13 08:13:19;;;;;;;1.13;0.77;;;;;;;10.26;90.62;99449.63;6148517;23;20079;-79
2023/01/13 08:15:51;;;;;;;0.63;0.50;;;;;;;10.27;90.84;99449.47;6175025;23;20044;-78
2023/01/13 08:18:20;;;;;;;4.47;1.40;;;;;;;10.24;91.05;99467.50;6077346;23;20044;-80
2023/01/13 08:20:48;;;;;;;1.58;0.80;;;;;;;10.25;90.90;99469.16;6178136;23;20032;-78
2023/01/13 08:23:15;;;;;;;0.77;0.63;;;;;;;10.24;90.98;99465.66;6151535;23;20086;-78
2023/01/13 08:25:42;;;;;;;2.08;0.90;;;;;;;10.26;90.67;99466.38;6151944;23;20040;-78
2023/01/13 08:28:09;;;;;;;3.20;0.93;;;;;;;10.26;90.41;99471.69;6152897;23;20100;-78
2023/01/13 08:30:36;;;;;;;2.15;0.93;;;;;;;10.26;90.50;99463.72;6104385;23;20028;-78
2023/01/13 08:33:06;;;;;;;4.22;1.15;;;;;;;10.24;90.54;99478.09;6175907;23;20037;-79
2023/01/13 08:35:38;;;;;;;2.60;1.30;;;;;;;10.23;90.31;99495.84;6128189;23;20027;-79
2023/01/13 08:38:05;;;;;;;4.20;0.95;;;;;;;10.26;90.21;99497.38;6177159;23;20407;-79
2023/01/13 08:40:32;;;;;;;2.53;1.08;;;;;;;10.25;89.63;99503.66;6151959;23;20432;-78
2023/01/13 08:43:00;;;;;;;2.15;0.82;;;;;;;10.25;89.41;99493.03;6152976;23;20091;-78
2023/01/13 08:45:26;;;;;;;2.60;0.70;;;;;;;10.25;89.75;99501.00;6176940;23;20400;-79
2023/01/13 08:47:53;;;;;;;3.67;0.88;;;;;;;10.22;90.27;99505.59;6151570;23;20020;-79
2023/01/13 08:50:20;;;;;;;2.85;1.02;;;;;;;10.22;90.20;99513.56;6128553;23;20043;-78
2023/01/13 08:52:47;;;;;;;2.83;0.88;;;;;;;10.20;90.68;99520.84;6126672;23;20500;-79
2023/01/13 08:55:13;;;;;;;2.95;1.13;;;;;;;10.18;90.46;99517.50;6176760;23;20540;-79
2023/01/13 08:57:40;;;;;;;1.75;0.98;;;;;;;10.17;90.81;99529.06;6177495;23;20023;-80
2023/01/13 09:00:08;;;;;;;3.33;0.73;;;;;;;10.15;90.71;99530.19;6201885;23;20441;-80
2023/01/13 09:02:34;;;;;;;3.58;0.60;;;;;;;10.16;90.80;99530.06;6176029;23;20453;-79
2023/01/13 09:05:02;;;;;;;6.05;1.30;;;;;;;10.15;90.46;99528.41;6151929;23;20403;-78
2023/01/13 09:07:30;;;;;;;3.63;1.05;;;;;;;10.20;89.70;99528.81;6127206;23;20059;-78
2023/01/13 09:09:56;;;;;;;3.30;1.20;;;;;;;10.20;89.32;99525.31;6151370;23;20435;-79
2023/01/13 09:15:09;;;;;;;2.05;1.08;;;;;;;10.17;89.14;99526.41;6174366;23;20029;-79
2023/01/13 09:17:36;;;;;;;5.43;1.70;;;;;;;10.20;89.07;99526.16;6175936;23;20063;-80
2023/01/13 09:20:04;;;;;;;4.10;1.20;;;;;;;10.22;88.33;99540.09;6177071;23;20023;-79
2023/01/13 09:22:30;;;;;;;6.47;1.58;;;;;;;10.24;87.65;99533.84;6151930;23;20027;-79
2023/01/13 09:24:57;;;;;;;3.95;1.23;;;;;;;10.23;87.58;99533.00;6152391;23;20025;-80
2023/01/13 09:27:24;;;;;;;2.47;1.02;;;;;;;10.22;87.83;99545.41;6151641;23;20100;-79
2023/01/13 09:29:51;;;;;;;4.75;1.05;;;;;;;10.19;88.24;99545.69;6151838;23;20079;-79
2023/01/13 09:32:17;;;;;;;8.75;1.42;;;;;;;10.21;88.34;99542.91;6165129;23;20020;-79
2023/01/13 09:35:00;;;;;;;4.38;1.20;;;;;;;10.20;88.33;99544.72;6151737;23;20028;-78
2023/01/13 09:37:27;;;;;;;6.13;1.40;;;;;;;10.20;89.04;99543.88;6148029;23;20025;-78
2023/01/13 09:39:54;;;;;;;7.60;1.70;;;;;;;10.21;89.08;99543.75;6176327;23;20020;-79
2023/01/13 09:45:24;;;;;;;2.13;0.95;;;;;;;10.16;90.13;99548.63;6137989;23;20020;-79
2023/01/13 09:48:02;;;;;;;6.72;1.20;;;;;;;10.14;89.72;99545.28;6147860;23;20107;-79
2023/01/13 09:50:33;;;;;;;3.53;0.88;;;;;;;10.18;89.48;99537.91;6149139;23;20118;-80
2023/01/13 09:53:00;;;;;;;2.97;0.80;;;;;;;10.21;89.34;99541.09;6151601;23;20083;-82
2023/01/13 09:55:33;;;;;;;2.75;0.73;;;;;;;10.20;89.04;99546.53;6177097;23;20024;-77
2023/01/13 09:58:01;;;;;;;2.53;1.10;;;;;;;10.22;88.98;99541.91;6173917;23;20055;-78
2023/01/13 10:00:35;;;;;;;5.20;1.38;;;;;;;10.20;88.83;99538.56;6151051;23;20341;-78
2023/01/13 10:03:25;;;;;;;2.40;1.08;;;;;;;10.20;88.95;99539.44;6198169;23;20040;-78
2023/01/13 10:06:00;;;;;;;4.18;1.00;;;;;;;10.30;88.18;99531.47;6101007;23;20036;-79
2023/01/13 10:08:54;;;;;;;5.07;1.08;;;;;;;10.21;88.27;99548.22;6125172;23;20025;-81
2023/01/13 10:14:16;;;;;;;3.22;1.20;;;;;;;10.32;87.89;99556.06;6197532;23;20754;-81
2023/01/13 10:16:49;;;;;;;2.20;0.95;;;;;;;10.37;87.80;99548.50;6173064;23;20036;-80
2023/01/13 10:19:30;;;;;;;2.63;0.95;;;;;;;10.27;87.92;99541.50;6175448;23;20090;-79
2023/01/13 10:22:10;;;;;;;3.65;0.88;;;;;;;10.37;87.92;99548.50;6149895;23;20067;-79
2023/01/13 10:24:51;;;;;;;3.95;1.00;;;;;;;10.35;88.00;99531.03;6124125;23;20020;-81
2023/01/13 10:27:31;;;;;;;5.15;1.13;;;;;;;10.39;87.83;99541.25;6150114;23;20029;-79
2023/01/13 10:29:58;;;;;;;4.05;0.80;;;;;;;10.51;87.97;99535.78;6125969;23;20445;-79
2023/01/13 10:32:25;;;;;;;4.93;0.80;;;;;;;10.57;87.92;99535.22;6154047;23;20533;-79
2023/01/13 10:34:56;;;;;;;8.18;1.10;;;;;;;10.60;86.96;99534.91;6151607;23;20035;-79
2023/01/13 10:37:27;;;;;;;4.20;0.85;;;;;;;10.61;86.99;99545.41;6104118;23;20025;-80
2023/01/13 10:39:55;;;;;;;5.38;1.08;;;;;;;10.64;86.93;99538.97;6203397;23;20044;-80
2023/01/13 10:42:23;;;;;;;5.68;0.88;;;;;;;10.67;86.79;99548.47;6128858;23;20020;-79
2023/01/13 10:44:58;;;;;;;3.45;1.00;;;;;;;10.60;86.28;99554.34;6126801;23;20028;-79
2023/01/13 10:47:48;;;;;;;5.35;1.92;;;;;;;10.56;86.26;99549.47;6177038;23;20071;-81
2023/01/13 10:50:14;;;;;;;5.85;1.40;;;;;;;10.65;86.46;99537.97;6128409;23;20091;-79
2023/01/13 10:52:56;;;;;;;4.18;1.10;;;;;;;10.58;86.19;99534.22;6176676;23;20034;-79
2023/01/13 10:55:35;;;;;;;3.22;0.93;;;;;;;10.55;85.45;99543.31;6103106;23;20078;-79
2023/01/13 10:58:21;;;;;;;4.03;1.08;;;;;;;10.54;85.35;99552.25;6175329;23;20024;-80
2023/01/13 11:00:48;;;;;;;3.55;0.90;;;;;;;10.62;85.53;99549.72;6150470;23;20025;-79
2023/01/13 11:03:26;;;;;;;6.03;1.38;;;;;;;10.61;85.57;99556.03;6152510;23;20102;-79
2023/01/13 11:05:59;;;;;;;10.00;1.65;;;;;;;10.62;84.91;99556.88;6079651;23;20024;-79
2023/01/13 11:08:45;;;;;;;3.95;1.00;;;;;;;10.55;84.76;99553.09;6128114;23;20031;-79
2023/01/13 11:11:44;;;;;;;6.68;1.10;;;;;;;10.53;84.73;99565.66;6150090;23;20020;-80
2023/01/13 11:14:31;;;;;;;4.40;1.00;;;;;;;10.58;83.80;99552.81;6009066;23;20446;-80
2023/01/13 11:17:12;;;;;;;4.00;1.10;;;;;;;10.60;84.18;99553.50;6176003;23;20024;-79
2023/01/13 11:19:42;;;;;;;7.72;1.33;;;;;;;10.60;84.58;99550.84;6174294;23;20017;-79
2023/01/13 11:22:16;;;;;;;9.95;1.40;;;;;;;10.59;84.02;99565.13;6152727;23;20048;-79
2023/01/13 11:25:00;;;;;;;3.50;1.10;;;;;;;10.59;84.05;99565.94;6175076;23;20029;-79
2023/01/13 11:27:33;;;;;;;7.40;1.38;;;;;;;10.61;84.07;99558.69;6127897;23;20020;-79
2023/01/13 11:30:08;;;;;;;6.30;1.02;;;;;;;10.62;83.97;99563.00;6162991;23;20091;-79
2023/01/13 11:33:16;;;;;;;8.82;1.20;;;;;;;10.56;83.12;99566.25;6174780;23;20024;-78
2023/01/13 11:35:57;;;;;;;6.82;1.02;;;;;;;10.64;83.42;99579.63;6044687;23;20021;-80
2023/01/13 11:38:30;;;;;;;10.68;1.60;;;;;;;10.64;83.33;99576.97;6197171;23;20059;-80
2023/01/13 11:41:03;;;;;;;16.48;1.80;;;;;;;10.65;83.31;99572.50;6152786;23;20064;-79
2023/01/13 11:43:38;;;;;;;7.70;1.60;;;;;;;10.59;81.83;99575.75;6152170;23;20072;-79
2023/01/13 11:46:05;;;;;;;5.20;1.58;;;;;;;10.60;82.52;99567.63;6174311;23;20025;-80
2023/01/13 11:48:35;;;;;;;10.38;1.95;;;;;;;10.60;82.87;99570.25;6152681;23;20024;-79
2023/01/13 11:51:36;;;;;;;6.65;1.20;;;;;;;10.52;82.72;99575.47;6175208;23;20392;-80
2023/01/13 11:54:06;;;;;;;6.70;1.10;;;;;;;10.59;83.11;99583.69;6112714;23;20020;-79
2023/01/13 11:56:45;;;;;;;7.10;1.23;;;;;;;10.54;83.32;99585.94;6175961;23;20628;-79
2023/01/13 11:59:33;;;;;;;5.70;1.73;;;;;;;10.47;83.02;99587.47;6175867;23;20024;-80
2023/01/13 12:02:19;;;;;;;8.10;2.38;;;;;;;10.33;81.79;99584.28;6151626;23;20034;-80
2023/01/13 12:04:56;;;;;;;8.75;1.95;;;;;;;10.43;81.81;99594.88;6124725;23;20068;-80
2023/01/13 12:07:47;;;;;;;7.43;1.20;;;;;;;10.43;80.88;99586.91;6173775;23;20024;-79
2023/01/13 12:10:24;;;;;;;6.78;1.52;;;;;;;10.49;81.37;99591.69;6087778;23;20386;-81
2023/01/13 12:13:22;;;;;;;7.65;1.60;;;;;;;10.46;80.79;99599.94;6126584;23;20013;-80
2023/01/13 12:16:24;;;;;;;11.45;2.00;;;;;;;10.57;81.19;99589.16;6109696;23;20024;-80
2023/01/13 12:19:23;;;;;;;10.23;1.70;;;;;;;10.68;81.48;99590.81;6129512;23;20012;-79
2023/01/13 12:22:25;;;;;;;9.57;1.80;;;;;;;10.74;81.77;99576.13;6126266;23;20376;-81
2023/01/13 12:25:12;;;;;;;10.95;1.80;;;;;;;10.74;80.76;99570.81;6035228;23;20349;-79
2023/01/13 12:27:43;;;;;;;7.75;1.70;;;;;;;10.85;81.28;99568.81;6081432;23;20017;-79
2023/01/13 12:30:26;;;;;;;9.00;2.33;;;;;;;10.78;80.36;99583.66;6079484;23;20016;-79
2023/01/13 12:32:58;;;;;;;15.10;2.47;;;;;;;10.84;80.97;99591.06;6175383;23;20020;-79
2023/01/13 12:35:36;;;;;;;9.52;1.73;;;;;;;10.77;79.63;99589.13;6150606;23;20099;-80
2023/01/13 12:38:20;;;;;;;8.38;1.83;;;;;;;10.69;79.39;99589.84;6148320;23;20306;-81
2023/01/13 12:41:29;;;;;;;5.97;1.70;;;;;;;10.64;79.88;99592.91;6174665;23;20036;-78
2023/01/13 12:46:55;;;;;;;12.30;2.50;;;;;;;10.65;79.52;99580.47;6152654;23;20029;-78
2023/01/13 12:49:33;;;;;;;13.95;2.63;;;;;;;10.72;79.95;99580.75;6126858;23;20028;-79